Hennessey, OK

1:03 AM CDT en Noviembre 01, 2014 (GMT -0500)
APRSWXNET Waukomis OK US | Change Station
CLOSE
Current Station
Estación meteorológica personal
Location: Waukomis, OK
Altura: 1220 ft
Estaciones meteorológicas cercanas
Aviso en curso: Freeze Warning

Alt 1220 ft 36.29 °N, 97.94 °W | Updated 31 minutes ago

Despejado
Despejado
34 ° F
Sensación térmica 28 ° F
N
7
Viento Variable Viento desde Este
Gusts 7.0 mph

Hoy
Alta -- | Baja -- ° F
--% Posibilidad de precipitaciones
Ayer
Alta -- | Baja -- ° F
Precip. -- pul
7:54 AM 6:35 PM
Gibosa creciente, 63% visible
Presión 30.43 pul
Visibilidad 10.0 Millas
Nubes Despejado
Vientos helados 28 ° F
Punto de rocío 19 ° F
Humedad 54%
Precipitaciones 0.00 pul
Espesor de la nieve No disponible.
UV 0 de una escala de 12
Polen 4.10 de una escala de 12
Calidad del aire No disponible.
Flu Activity No disponible.
METAR KEND 010558Z AUTO 10006KT 10SM CLR 02/M06 A3040 RMK AO2 SLP302 T00211063 10067 20018 58000 $

More Conditions Fewer Conditions

Presión 30.43 pul
Visibilidad 10.0 Millas
Nubes Despejado
Vientos helados 28 ° F
Punto de rocío 19 ° F
Humedad 54%
Precipitaciones 0.00 pul
Espesor de la nieve No disponible.
UV 0 de una escala de 12
Polen 4.10 de una escala de 12
Calidad del aire No disponible.
Flu Activity No disponible.
METAR KEND 010558Z AUTO 10006KT 10SM CLR 02/M06 A3040 RMK AO2 SLP302 T00211063 10067 20018 58000 $

More Conditions Fewer Conditions

10-Day Weather Forecast

Almanac

Astronomía

Nov. 01, 2014 Salida Puesta
Hora real
Crepúsculo civil
Crepúsculo náutico
Crepúsculo astronómico
Luna
Horas de luz
Horas de luz
Tomorrow will be .
, % of the Moon is Illuminated

Extremos de hoy

Máximos del estado Bajos del estado

Community

WunderPhotos

Upload Photos

1,766,862 ¡fotos cargadas!

WunderBlogs® & News

Nearby

Calidad del aire

  Calidad del aire Índice AQ Contaminante
Not available.

Grosos de nieve

Estación Profundido Altura

Actividad de terremotos

Ciudad Distance Mag. Tiempo y dato
Magnitud mínima muestra es 2,5.

Temperaturas de aguas costeras

Lugar Temperatura

Estaciones meteorológicas cercanas